sensor_id;sensor_type;location;lat;lon;timestamp;temperature;humidity
58102;HTU21D;52034;51.926;6.320;2024-03-25T00:00:31;6.39;86.45
58102;HTU21D;52034;51.926;6.320;2024-03-25T00:01:32;6.41;86.54
58102;HTU21D;52034;51.926;6.320;2024-03-25T00:02:32;6.41;86.68
58102;HTU21D;52034;51.926;6.320;2024-03-25T00:03:33;6.43;85.98
58102;HTU21D;52034;51.926;6.320;2024-03-25T00:04:34;6.44;86.21
58102;HTU21D;52034;51.926;6.320;2024-03-25T00:05:35;6.43;86.18
58102;HTU21D;52034;51.926;6.320;2024-03-25T00:06:37;6.45;85.88
58102;HTU21D;52034;51.926;6.320;2024-03-25T00:07:38;6.44;86.20
58102;HTU21D;52034;51.926;6.320;2024-03-25T00:08:39;6.44;85.96
58102;HTU21D;52034;51.926;6.320;2024-03-25T00:09:39;6.44;85.26
58102;HTU21D;52034;51.926;6.320;2024-03-25T00:10:40;6.45;85.74
58102;HTU21D;52034;51.926;6.320;2024-03-25T00:11:41;6.39;85.45
58102;HTU21D;52034;51.926;6.320;2024-03-25T00:12:42;6.44;85.16
58102;HTU21D;52034;51.926;6.320;2024-03-25T00:13:43;6.43;85.35
58102;HTU21D;52034;51.926;6.320;2024-03-25T00:14:43;6.42;85.42
58102;HTU21D;52034;51.926;6.320;2024-03-25T00:15:44;6.43;85.32
58102;HTU21D;52034;51.926;6.320;2024-03-25T00:16:44;6.40;85.33
58102;HTU21D;52034;51.926;6.320;2024-03-25T00:17:45;6.38;85.41
58102;HTU21D;52034;51.926;6.320;2024-03-25T00:18:47;6.33;85.35
58102;HTU21D;52034;51.926;6.320;2024-03-25T00:19:48;6.34;85.24
58102;HTU21D;52034;51.926;6.320;2024-03-25T00:20:52;6.31;84.97
58102;HTU21D;52034;51.926;6.320;2024-03-25T00:21:53;6.30;84.96
58102;HTU21D;52034;51.926;6.320;2024-03-25T00:22:53;6.30;85.14
58102;HTU21D;52034;51.926;6.320;2024-03-25T00:23:54;6.28;84.94
58102;HTU21D;52034;51.926;6.320;2024-03-25T00:24:58;6.27;84.81
58102;HTU21D;52034;51.926;6.320;2024-03-25T00:25:58;6.24;85.00
58102;HTU21D;52034;51.926;6.320;2024-03-25T00:26:59;6.22;85.00
58102;HTU21D;52034;51.926;6.320;2024-03-25T00:27:59;6.14;85.16
58102;HTU21D;52034;51.926;6.320;2024-03-25T00:29:00;6.12;85.46
58102;HTU21D;52034;51.926;6.320;2024-03-25T00:30:01;6.05;85.55
58102;HTU21D;52034;51.926;6.320;2024-03-25T00:31:02;6.01;85.74
58102;HTU21D;52034;51.926;6.320;2024-03-25T00:32:02;6.02;85.49
58102;HTU21D;52034;51.926;6.320;2024-03-25T00:33:03;5.99;85.45
58102;HTU21D;52034;51.926;6.320;2024-03-25T00:34:04;5.97;85.51
58102;HTU21D;52034;51.926;6.320;2024-03-25T00:35:04;5.97;85.51
58102;HTU21D;52034;51.926;6.320;2024-03-25T00:36:05;5.95;85.44
58102;HTU21D;52034;51.926;6.320;2024-03-25T00:37:06;5.87;85.84
58102;HTU21D;52034;51.926;6.320;2024-03-25T00:38:06;5.81;85.54
58102;HTU21D;52034;51.926;6.320;2024-03-25T00:39:07;5.81;86.17
58102;HTU21D;52034;51.926;6.320;2024-03-25T00:40:08;5.82;86.28
58102;HTU21D;52034;51.926;6.320;2024-03-25T00:41:09;5.78;86.22
58102;HTU21D;52034;51.926;6.320;2024-03-25T00:42:10;5.82;86.16
58102;HTU21D;52034;51.926;6.320;2024-03-25T00:43:10;5.76;86.02
58102;HTU21D;52034;51.926;6.320;2024-03-25T00:44:11;5.76;86.22
58102;HTU21D;52034;51.926;6.320;2024-03-25T00:45:12;5.67;86.12
58102;HTU21D;52034;51.926;6.320;2024-03-25T00:46:12;5.72;85.66
58102;HTU21D;52034;51.926;6.320;2024-03-25T00:47:13;5.76;85.74
58102;HTU21D;52034;51.926;6.320;2024-03-25T00:48:13;5.76;85.62
58102;HTU21D;52034;51.926;6.320;2024-03-25T00:49:14;5.74;85.84
58102;HTU21D;52034;51.926;6.320;2024-03-25T00:50:15;5.71;85.74
58102;HTU21D;52034;51.926;6.320;2024-03-25T00:51:15;5.70;86.03
58102;HTU21D;52034;51.926;6.320;2024-03-25T00:52:16;5.66;85.71
58102;HTU21D;52034;51.926;6.320;2024-03-25T00:53:16;5.63;85.62
58102;HTU21D;52034;51.926;6.320;2024-03-25T00:54:18;5.65;85.93
58102;HTU21D;52034;51.926;6.320;2024-03-25T00:55:19;5.64;85.88
58102;HTU21D;52034;51.926;6.320;2024-03-25T00:56:19;5.60;86.03
58102;HTU21D;52034;51.926;6.320;2024-03-25T00:57:21;5.63;85.98
58102;HTU21D;52034;51.926;6.320;2024-03-25T00:58:21;5.57;85.60
58102;HTU21D;52034;51.926;6.320;2024-03-25T00:59:22;5.61;86.35
58102;HTU21D;52034;51.926;6.320;2024-03-25T01:00:22;5.64;86.12
58102;HTU21D;52034;51.926;6.320;2024-03-25T01:01:23;5.65;85.90
58102;HTU21D;52034;51.926;6.320;2024-03-25T01:02:24;5.62;86.05
58102;HTU21D;52034;51.926;6.320;2024-03-25T01:03:24;5.59;86.12
58102;HTU21D;52034;51.926;6.320;2024-03-25T01:04:25;5.63;85.77
58102;HTU21D;52034;51.926;6.320;2024-03-25T01:05:26;5.60;86.03
58102;HTU21D;52034;51.926;6.320;2024-03-25T01:06:26;5.60;85.94
58102;HTU21D;52034;51.926;6.320;2024-03-25T01:07:27;5.62;85.39
58102;HTU21D;52034;51.926;6.320;2024-03-25T01:08:27;5.56;86.16
58102;HTU21D;52034;51.926;6.320;2024-03-25T01:09:28;5.53;85.80
58102;HTU21D;52034;51.926;6.320;2024-03-25T01:10:30;5.52;86.06
58102;HTU21D;52034;51.926;6.320;2024-03-25T01:11:32;5.54;86.12
58102;HTU21D;52034;51.926;6.320;2024-03-25T01:12:32;5.57;86.15
58102;HTU21D;52034;51.926;6.320;2024-03-25T01:13:33;5.55;85.90
58102;HTU21D;52034;51.926;6.320;2024-03-25T01:14:33;5.50;86.12
58102;HTU21D;52034;51.926;6.320;2024-03-25T01:15:34;5.56;85.93
58102;HTU21D;52034;51.926;6.320;2024-03-25T01:16:35;5.59;85.66
58102;HTU21D;52034;51.926;6.320;2024-03-25T01:17:38;5.64;85.55
58102;HTU21D;52034;51.926;6.320;2024-03-25T01:18:39;5.68;85.35
58102;HTU21D;52034;51.926;6.320;2024-03-25T01:19:40;5.68;85.54
58102;HTU21D;52034;51.926;6.320;2024-03-25T01:20:40;5.68;85.73
58102;HTU21D;52034;51.926;6.320;2024-03-25T01:21:41;5.59;85.80
58102;HTU21D;52034;51.926;6.320;2024-03-25T01:22:42;5.60;85.72
58102;HTU21D;52034;51.926;6.320;2024-03-25T01:23:42;5.60;85.79
58102;HTU21D;52034;51.926;6.320;2024-03-25T01:24:43;5.62;86.03
58102;HTU21D;52034;51.926;6.320;2024-03-25T01:25:44;5.56;85.83
58102;HTU21D;52034;51.926;6.320;2024-03-25T01:26:44;5.55;85.85
58102;HTU21D;52034;51.926;6.320;2024-03-25T01:27:45;5.51;85.97
58102;HTU21D;52034;51.926;6.320;2024-03-25T01:28:46;5.48;86.42
58102;HTU21D;52034;51.926;6.320;2024-03-25T01:29:46;5.48;86.22
58102;HTU21D;52034;51.926;6.320;2024-03-25T01:30:47;5.48;86.53
58102;HTU21D;52034;51.926;6.320;2024-03-25T01:31:48;5.46;86.32
58102;HTU21D;52034;51.926;6.320;2024-03-25T01:32:49;5.45;86.55
58102;HTU21D;52034;51.926;6.320;2024-03-25T01:33:50;5.40;86.58
58102;HTU21D;52034;51.926;6.320;2024-03-25T01:34:51;5.43;86.32
58102;HTU21D;52034;51.926;6.320;2024-03-25T01:35:52;5.47;86.64
58102;HTU21D;52034;51.926;6.320;2024-03-25T01:36:55;5.41;86.63
58102;HTU21D;52034;51.926;6.320;2024-03-25T01:37:55;5.39;86.27
58102;HTU21D;52034;51.926;6.320;2024-03-25T01:38:56;5.47;86.71
58102;HTU21D;52034;51.926;6.320;2024-03-25T01:39:56;5.42;86.67
58102;HTU21D;52034;51.926;6.320;2024-03-25T01:41:07;5.43;86.81
58102;HTU21D;52034;51.926;6.320;2024-03-25T01:42:08;5.35;86.51
58102;HTU21D;52034;51.926;6.320;2024-03-25T01:43:08;5.34;86.69
58102;HTU21D;52034;51.926;6.320;2024-03-25T01:44:09;5.34;86.52
58102;HTU21D;52034;51.926;6.320;2024-03-25T01:45:10;5.31;86.58
58102;HTU21D;52034;51.926;6.320;2024-03-25T01:46:10;5.27;86.99
58102;HTU21D;52034;51.926;6.320;2024-03-25T01:47:11;5.24;87.38
58102;HTU21D;52034;51.926;6.320;2024-03-25T01:48:12;5.24;87.06
58102;HTU21D;52034;51.926;6.320;2024-03-25T01:49:13;5.09;87.48
58102;HTU21D;52034;51.926;6.320;2024-03-25T01:50:14;5.09;87.99
58102;HTU21D;52034;51.926;6.320;2024-03-25T01:51:16;5.18;87.85
58102;HTU21D;52034;51.926;6.320;2024-03-25T01:52:17;5.23;87.53
58102;HTU21D;52034;51.926;6.320;2024-03-25T01:53:17;5.18;86.93
58102;HTU21D;52034;51.926;6.320;2024-03-25T01:54:18;5.20;87.33
58102;HTU21D;52034;51.926;6.320;2024-03-25T01:55:24;5.19;87.27
58102;HTU21D;52034;51.926;6.320;2024-03-25T01:56:26;5.20;87.19
58102;HTU21D;52034;51.926;6.320;2024-03-25T01:57:27;5.21;87.06
58102;HTU21D;52034;51.926;6.320;2024-03-25T01:58:28;5.19;87.28
58102;HTU21D;52034;51.926;6.320;2024-03-25T01:59:30;5.23;87.04
58102;HTU21D;52034;51.926;6.320;2024-03-25T02:00:31;5.17;87.20
58102;HTU21D;52034;51.926;6.320;2024-03-25T02:01:32;5.17;87.14
58102;HTU21D;52034;51.926;6.320;2024-03-25T02:02:33;5.22;87.32
58102;HTU21D;52034;51.926;6.320;2024-03-25T02:03:35;5.17;86.99
58102;HTU21D;52034;51.926;6.320;2024-03-25T02:04:36;5.17;87.06
58102;HTU21D;52034;51.926;6.320;2024-03-25T02:05:37;5.15;87.39
58102;HTU21D;52034;51.926;6.320;2024-03-25T02:06:38;5.19;86.86
58102;HTU21D;52034;51.926;6.320;2024-03-25T02:07:40;5.10;86.86
58102;HTU21D;52034;51.926;6.320;2024-03-25T02:08:42;5.13;86.93
58102;HTU21D;52034;51.926;6.320;2024-03-25T02:09:42;5.04;87.23
58102;HTU21D;52034;51.926;6.320;2024-03-25T02:10:44;5.12;87.25
58102;HTU21D;52034;51.926;6.320;2024-03-25T02:11:44;5.06;86.61
58102;HTU21D;52034;51.926;6.320;2024-03-25T02:12:46;5.01;87.73
58102;HTU21D;52034;51.926;6.320;2024-03-25T02:13:46;5.04;87.32
58102;HTU21D;52034;51.926;6.320;2024-03-25T02:14:47;4.92;87.63
58102;HTU21D;52034;51.926;6.320;2024-03-25T02:15:47;4.74;87.98
58102;HTU21D;52034;51.926;6.320;2024-03-25T02:16:51;4.71;88.01
58102;HTU21D;52034;51.926;6.320;2024-03-25T02:17:52;4.50;87.86
58102;HTU21D;52034;51.926;6.320;2024-03-25T02:18:52;4.51;88.89
58102;HTU21D;52034;51.926;6.320;2024-03-25T02:19:53;4.47;88.54
58102;HTU21D;52034;51.926;6.320;2024-03-25T02:20:54;4.48;88.63
58102;HTU21D;52034;51.926;6.320;2024-03-25T02:21:55;4.49;88.29
58102;HTU21D;52034;51.926;6.320;2024-03-25T02:22:55;4.49;88.66
58102;HTU21D;52034;51.926;6.320;2024-03-25T02:23:56;4.42;88.97
58102;HTU21D;52034;51.926;6.320;2024-03-25T02:24:59;4.42;88.41
58102;HTU21D;52034;51.926;6.320;2024-03-25T02:26:00;4.41;88.32
58102;HTU21D;52034;51.926;6.320;2024-03-25T02:27:01;4.43;88.25
58102;HTU21D;52034;51.926;6.320;2024-03-25T02:28:02;4.38;89.09
58102;HTU21D;52034;51.926;6.320;2024-03-25T02:29:02;4.33;89.14
58102;HTU21D;52034;51.926;6.320;2024-03-25T02:30:09;4.30;88.80
58102;HTU21D;52034;51.926;6.320;2024-03-25T02:31:12;4.22;88.87
58102;HTU21D;52034;51.926;6.320;2024-03-25T02:32:13;4.16;89.38
58102;HTU21D;52034;51.926;6.320;2024-03-25T02:33:14;4.17;89.60
58102;HTU21D;52034;51.926;6.320;2024-03-25T02:34:14;4.19;89.80
58102;HTU21D;52034;51.926;6.320;2024-03-25T02:35:15;4.22;89.83
58102;HTU21D;52034;51.926;6.320;2024-03-25T02:36:16;4.26;89.75
58102;HTU21D;52034;51.926;6.320;2024-03-25T02:37:17;4.21;89.41
58102;HTU21D;52034;51.926;6.320;2024-03-25T02:38:18;4.32;89.75
58102;HTU21D;52034;51.926;6.320;2024-03-25T02:39:20;4.21;89.23
58102;HTU21D;52034;51.926;6.320;2024-03-25T02:40:21;4.14;89.21
58102;HTU21D;52034;51.926;6.320;2024-03-25T02:41:22;4.15;89.94
58102;HTU21D;52034;51.926;6.320;2024-03-25T02:42:25;4.19;88.83
58102;HTU21D;52034;51.926;6.320;2024-03-25T02:43:26;4.20;89.09
58102;HTU21D;52034;51.926;6.320;2024-03-25T02:44:27;4.14;89.62
58102;HTU21D;52034;51.926;6.320;2024-03-25T02:45:28;4.20;89.21
58102;HTU21D;52034;51.926;6.320;2024-03-25T02:46:29;4.10;89.79
58102;HTU21D;52034;51.926;6.320;2024-03-25T02:47:29;4.09;89.32
58102;HTU21D;52034;51.926;6.320;2024-03-25T02:48:30;4.12;89.66
58102;HTU21D;52034;51.926;6.320;2024-03-25T02:49:31;4.14;89.99
58102;HTU21D;52034;51.926;6.320;2024-03-25T02:50:32;4.20;90.05
58102;HTU21D;52034;51.926;6.320;2024-03-25T02:51:32;4.24;90.16
58102;HTU21D;52034;51.926;6.320;2024-03-25T02:52:33;4.32;89.57
58102;HTU21D;52034;51.926;6.320;2024-03-25T02:53:34;4.23;88.27
58102;HTU21D;52034;51.926;6.320;2024-03-25T02:54:34;4.20;88.95
58102;HTU21D;52034;51.926;6.320;2024-03-25T02:55:35;4.26;88.45
58102;HTU21D;52034;51.926;6.320;2024-03-25T02:56:36;4.23;88.56
58102;HTU21D;52034;51.926;6.320;2024-03-25T02:57:36;4.19;89.12
58102;HTU21D;52034;51.926;6.320;2024-03-25T02:58:37;4.16;88.35
58102;HTU21D;52034;51.926;6.320;2024-03-25T02:59:38;4.16;88.79
58102;HTU21D;52034;51.926;6.320;2024-03-25T03:00:38;4.32;89.23
58102;HTU21D;52034;51.926;6.320;2024-03-25T03:01:39;4.44;89.09
58102;HTU21D;52034;51.926;6.320;2024-03-25T03:02:40;4.37;88.37
58102;HTU21D;52034;51.926;6.320;2024-03-25T03:03:40;4.39;89.10
58102;HTU21D;52034;51.926;6.320;2024-03-25T03:04:41;4.31;88.20
58102;HTU21D;52034;51.926;6.320;2024-03-25T03:05:42;4.29;88.61
58102;HTU21D;52034;51.926;6.320;2024-03-25T03:06:42;4.26;89.76
58102;HTU21D;52034;51.926;6.320;2024-03-25T03:07:43;4.24;89.83
58102;HTU21D;52034;51.926;6.320;2024-03-25T03:08:43;4.26;89.44
58102;HTU21D;52034;51.926;6.320;2024-03-25T03:09:44;4.18;89.56
58102;HTU21D;52034;51.926;6.320;2024-03-25T03:10:44;4.17;89.91
58102;HTU21D;52034;51.926;6.320;2024-03-25T03:11:45;4.24;89.95
58102;HTU21D;52034;51.926;6.320;2024-03-25T03:12:46;4.23;90.05
58102;HTU21D;52034;51.926;6.320;2024-03-25T03:13:46;4.21;89.85
58102;HTU21D;52034;51.926;6.320;2024-03-25T03:14:47;4.23;90.13
58102;HTU21D;52034;51.926;6.320;2024-03-25T03:15:48;4.30;89.57
58102;HTU21D;52034;51.926;6.320;2024-03-25T03:16:48;4.39;89.20
58102;HTU21D;52034;51.926;6.320;2024-03-25T03:17:50;4.37;89.38
58102;HTU21D;52034;51.926;6.320;2024-03-25T03:18:50;4.41;89.09
58102;HTU21D;52034;51.926;6.320;2024-03-25T03:19:51;4.48;89.23
58102;HTU21D;52034;51.926;6.320;2024-03-25T03:20:52;4.56;89.21
58102;HTU21D;52034;51.926;6.320;2024-03-25T03:21:55;4.58;89.07
58102;HTU21D;52034;51.926;6.320;2024-03-25T03:22:56;4.58;89.34
58102;HTU21D;52034;51.926;6.320;2024-03-25T03:23:57;4.44;89.60
58102;HTU21D;52034;51.926;6.320;2024-03-25T03:24:58;4.50;89.56
58102;HTU21D;52034;51.926;6.320;2024-03-25T03:25:58;4.53;89.49
58102;HTU21D;52034;51.926;6.320;2024-03-25T03:27:00;4.53;89.27
58102;HTU21D;52034;51.926;6.320;2024-03-25T03:28:01;4.53;89.57
58102;HTU21D;52034;51.926;6.320;2024-03-25T03:29:02;4.57;89.93
58102;HTU21D;52034;51.926;6.320;2024-03-25T03:30:03;4.49;90.41
58102;HTU21D;52034;51.926;6.320;2024-03-25T03:31:04;4.49;90.28
58102;HTU21D;52034;51.926;6.320;2024-03-25T03:32:05;4.54;90.50
58102;HTU21D;52034;51.926;6.320;2024-03-25T03:33:05;4.58;90.65
58102;HTU21D;52034;51.926;6.320;2024-03-25T03:34:06;4.61;90.34
58102;HTU21D;52034;51.926;6.320;2024-03-25T03:35:07;4.65;90.49
58102;HTU21D;52034;51.926;6.320;2024-03-25T03:36:07;4.66;89.93
58102;HTU21D;52034;51.926;6.320;2024-03-25T03:37:08;4.68;89.92
58102;HTU21D;52034;51.926;6.320;2024-03-25T03:38:09;4.79;89.63
58102;HTU21D;52034;51.926;6.320;2024-03-25T03:39:09;4.77;89.78
58102;HTU21D;52034;51.926;6.320;2024-03-25T03:40:10;4.75;89.77
58102;HTU21D;52034;51.926;6.320;2024-03-25T03:41:12;4.73;89.92
58102;HTU21D;52034;51.926;6.320;2024-03-25T03:42:12;4.84;89.77
58102;HTU21D;52034;51.926;6.320;2024-03-25T03:43:13;4.83;89.63
58102;HTU21D;52034;51.926;6.320;2024-03-25T03:44:14;4.81;89.53
58102;HTU21D;52034;51.926;6.320;2024-03-25T03:45:15;4.79;89.89
58102;HTU21D;52034;51.926;6.320;2024-03-25T03:46:16;4.87;89.76
58102;HTU21D;52034;51.926;6.320;2024-03-25T03:47:17;4.94;89.34
58102;HTU21D;52034;51.926;6.320;2024-03-25T03:48:17;5.10;88.76
58102;HTU21D;52034;51.926;6.320;2024-03-25T03:49:18;5.11;88.43
58102;HTU21D;52034;51.926;6.320;2024-03-25T03:50:19;5.18;88.25
58102;HTU21D;52034;51.926;6.320;2024-03-25T03:51:19;5.18;88.27
58102;HTU21D;52034;51.926;6.320;2024-03-25T03:52:20;5.19;88.08
58102;HTU21D;52034;51.926;6.320;2024-03-25T03:53:20;5.24;87.93
58102;HTU21D;52034;51.926;6.320;2024-03-25T03:54:21;5.26;87.83
58102;HTU21D;52034;51.926;6.320;2024-03-25T03:55:22;5.25;87.72
58102;HTU21D;52034;51.926;6.320;2024-03-25T03:56:22;5.30;87.63
58102;HTU21D;52034;51.926;6.320;2024-03-25T03:57:23;5.22;87.94
58102;HTU21D;52034;51.926;6.320;2024-03-25T03:58:24;5.27;87.88
58102;HTU21D;52034;51.926;6.320;2024-03-25T03:59:25;5.26;87.88
58102;HTU21D;52034;51.926;6.320;2024-03-25T04:00:26;5.22;87.90
58102;HTU21D;52034;51.926;6.320;2024-03-25T04:01:27;5.23;88.01
58102;HTU21D;52034;51.926;6.320;2024-03-25T04:02:27;5.25;88.22
58102;HTU21D;52034;51.926;6.320;2024-03-25T04:03:28;5.25;87.99
58102;HTU21D;52034;51.926;6.320;2024-03-25T04:04:30;5.33;87.68
58102;HTU21D;52034;51.926;6.320;2024-03-25T04:05:31;5.36;87.58
58102;HTU21D;52034;51.926;6.320;2024-03-25T04:06:31;5.30;87.61
58102;HTU21D;52034;51.926;6.320;2024-03-25T04:07:32;5.32;87.74
58102;HTU21D;52034;51.926;6.320;2024-03-25T04:08:33;5.30;87.79
58102;HTU21D;52034;51.926;6.320;2024-03-25T04:09:33;5.28;87.75
58102;HTU21D;52034;51.926;6.320;2024-03-25T04:10:34;5.25;87.78
58102;HTU21D;52034;51.926;6.320;2024-03-25T04:11:35;5.25;87.86
58102;HTU21D;52034;51.926;6.320;2024-03-25T04:12:36;5.28;87.67
58102;HTU21D;52034;51.926;6.320;2024-03-25T04:13:39;5.33;87.33
58102;HTU21D;52034;51.926;6.320;2024-03-25T04:14:40;5.34;87.32
58102;HTU21D;52034;51.926;6.320;2024-03-25T04:15:41;5.27;87.57
58102;HTU21D;52034;51.926;6.320;2024-03-25T04:16:43;5.28;87.61
58102;HTU21D;52034;51.926;6.320;2024-03-25T04:17:44;5.22;87.83
58102;HTU21D;52034;51.926;6.320;2024-03-25T04:18:47;5.07;88.38
58102;HTU21D;52034;51.926;6.320;2024-03-25T04:19:51;5.08;88.51
58102;HTU21D;52034;51.926;6.320;2024-03-25T04:20:52;5.16;88.00
58102;HTU21D;52034;51.926;6.320;2024-03-25T04:21:53;5.13;88.04
58102;HTU21D;52034;51.926;6.320;2024-03-25T04:22:54;5.16;87.80
58102;HTU21D;52034;51.926;6.320;2024-03-25T04:23:54;5.10;87.79
58102;HTU21D;52034;51.926;6.320;2024-03-25T04:24:55;5.15;87.68
58102;HTU21D;52034;51.926;6.320;2024-03-25T04:25:56;5.05;87.91
58102;HTU21D;52034;51.926;6.320;2024-03-25T04:27:01;5.05;87.73
58102;HTU21D;52034;51.926;6.320;2024-03-25T04:28:01;5.06;87.32
58102;HTU21D;52034;51.926;6.320;2024-03-25T04:29:02;5.06;87.53
58102;HTU21D;52034;51.926;6.320;2024-03-25T04:30:03;5.04;87.25
58102;HTU21D;52034;51.926;6.320;2024-03-25T04:31:03;4.97;86.98
58102;HTU21D;52034;51.926;6.320;2024-03-25T04:32:04;4.98;86.89
58102;HTU21D;52034;51.926;6.320;2024-03-25T04:33:05;5.01;86.67
58102;HTU21D;52034;51.926;6.320;2024-03-25T04:34:05;4.97;86.72
58102;HTU21D;52034;51.926;6.320;2024-03-25T04:35:06;4.89;86.68
58102;HTU21D;52034;51.926;6.320;2024-03-25T04:36:07;4.82;87.38
58102;HTU21D;52034;51.926;6.320;2024-03-25T04:37:09;4.73;86.69
58102;HTU21D;52034;51.926;6.320;2024-03-25T04:38:10;4.54;87.70
58102;HTU21D;52034;51.926;6.320;2024-03-25T04:39:10;4.49;86.59
58102;HTU21D;52034;51.926;6.320;2024-03-25T04:40:12;4.52;87.77
58102;HTU21D;52034;51.926;6.320;2024-03-25T04:41:15;4.60;87.84
58102;HTU21D;52034;51.926;6.320;2024-03-25T04:42:15;4.53;88.08
58102;HTU21D;52034;51.926;6.320;2024-03-25T04:43:16;4.53;88.09
58102;HTU21D;52034;51.926;6.320;2024-03-25T04:44:16;4.65;88.43
58102;HTU21D;52034;51.926;6.320;2024-03-25T04:45:18;4.57;87.96
58102;HTU21D;52034;51.926;6.320;2024-03-25T04:46:19;4.54;88.00
58102;HTU21D;52034;51.926;6.320;2024-03-25T04:47:20;4.49;88.62
58102;HTU21D;52034;51.926;6.320;2024-03-25T04:48:21;4.43;88.62
58102;HTU21D;52034;51.926;6.320;2024-03-25T04:49:21;4.49;89.07
58102;HTU21D;52034;51.926;6.320;2024-03-25T04:50:22;4.39;88.12
58102;HTU21D;52034;51.926;6.320;2024-03-25T04:51:22;4.44;87.88
58102;HTU21D;52034;51.926;6.320;2024-03-25T04:52:23;4.43;88.09
58102;HTU21D;52034;51.926;6.320;2024-03-25T04:53:26;4.47;87.97
58102;HTU21D;52034;51.926;6.320;2024-03-25T04:54:26;4.44;87.45
58102;HTU21D;52034;51.926;6.320;2024-03-25T04:55:27;4.32;88.07
58102;HTU21D;52034;51.926;6.320;2024-03-25T04:56:28;4.23;88.24
58102;HTU21D;52034;51.926;6.320;2024-03-25T04:57:28;4.34;87.64
58102;HTU21D;52034;51.926;6.320;2024-03-25T04:58:29;4.36;87.97
58102;HTU21D;52034;51.926;6.320;2024-03-25T04:59:30;4.36;87.35
58102;HTU21D;52034;51.926;6.320;2024-03-25T05:00:30;4.22;87.67
58102;HTU21D;52034;51.926;6.320;2024-03-25T05:01:31;4.26;87.96
58102;HTU21D;52034;51.926;6.320;2024-03-25T05:02:32;4.26;87.37
58102;HTU21D;52034;51.926;6.320;2024-03-25T05:03:33;4.27;87.05
58102;HTU21D;52034;51.926;6.320;2024-03-25T05:04:33;4.23;87.43
58102;HTU21D;52034;51.926;6.320;2024-03-25T05:05:34;4.18;87.86
58102;HTU21D;52034;51.926;6.320;2024-03-25T05:06:35;4.12;88.36
58102;HTU21D;52034;51.926;6.320;2024-03-25T05:07:36;4.12;88.24
58102;HTU21D;52034;51.926;6.320;2024-03-25T05:08:37;4.19;88.12
58102;HTU21D;52034;51.926;6.320;2024-03-25T05:09:38;4.08;87.93
58102;HTU21D;52034;51.926;6.320;2024-03-25T05:10:39;4.16;88.24
58102;HTU21D;52034;51.926;6.320;2024-03-25T05:11:39;4.04;88.28
58102;HTU21D;52034;51.926;6.320;2024-03-25T05:12:40;4.08;87.82
58102;HTU21D;52034;51.926;6.320;2024-03-25T05:13:41;4.06;87.15
58102;HTU21D;52034;51.926;6.320;2024-03-25T05:14:41;3.97;87.16
58102;HTU21D;52034;51.926;6.320;2024-03-25T05:15:49;3.91;86.55
58102;HTU21D;52034;51.926;6.320;2024-03-25T05:16:49;3.90;86.81
58102;HTU21D;52034;51.926;6.320;2024-03-25T05:17:52;3.85;86.57
58102;HTU21D;52034;51.926;6.320;2024-03-25T05:18:53;3.80;86.80
58102;HTU21D;52034;51.926;6.320;2024-03-25T05:19:54;3.76;86.55
58102;HTU21D;52034;51.926;6.320;2024-03-25T05:20:55;3.72;87.33
58102;HTU21D;52034;51.926;6.320;2024-03-25T05:21:56;3.70;87.49
58102;HTU21D;52034;51.926;6.320;2024-03-25T05:22:56;3.69;87.39
58102;HTU21D;52034;51.926;6.320;2024-03-25T05:23:57;3.69;87.62
58102;HTU21D;52034;51.926;6.320;2024-03-25T05:24:57;3.64;87.77
58102;HTU21D;52034;51.926;6.320;2024-03-25T05:25:58;3.70;87.91
58102;HTU21D;52034;51.926;6.320;2024-03-25T05:26:59;3.69;87.79
58102;HTU21D;52034;51.926;6.320;2024-03-25T05:27:59;3.72;87.76
58102;HTU21D;52034;51.926;6.320;2024-03-25T05:29:01;3.71;88.31
58102;HTU21D;52034;51.926;6.320;2024-03-25T05:30:01;3.60;88.09
58102;HTU21D;52034;51.926;6.320;2024-03-25T05:31:06;3.67;88.37
58102;HTU21D;52034;51.926;6.320;2024-03-25T05:32:06;3.63;88.42
58102;HTU21D;52034;51.926;6.320;2024-03-25T05:33:07;3.70;87.70
58102;HTU21D;52034;51.926;6.320;2024-03-25T05:34:08;3.69;87.58
58102;HTU21D;52034;51.926;6.320;2024-03-25T05:35:09;3.65;87.67
58102;HTU21D;52034;51.926;6.320;2024-03-25T05:36:10;3.67;88.06
58102;HTU21D;52034;51.926;6.320;2024-03-25T05:37:11;3.60;88.61
58102;HTU21D;52034;51.926;6.320;2024-03-25T05:38:11;3.62;88.74
58102;HTU21D;52034;51.926;6.320;2024-03-25T05:39:13;3.57;88.46
58102;HTU21D;52034;51.926;6.320;2024-03-25T05:40:13;3.57;87.86
58102;HTU21D;52034;51.926;6.320;2024-03-25T05:41:15;3.53;87.42
58102;HTU21D;52034;51.926;6.320;2024-03-25T05:42:16;3.46;86.74
58102;HTU21D;52034;51.926;6.320;2024-03-25T05:43:17;3.49;87.38
58102;HTU21D;52034;51.926;6.320;2024-03-25T05:44:17;3.40;87.37
58102;HTU21D;52034;51.926;6.320;2024-03-25T05:45:18;3.42;86.96
58102;HTU21D;52034;51.926;6.320;2024-03-25T05:46:19;3.26;86.95
58102;HTU21D;52034;51.926;6.320;2024-03-25T05:47:19;3.28;86.65
58102;HTU21D;52034;51.926;6.320;2024-03-25T05:48:20;3.28;87.28
58102;HTU21D;52034;51.926;6.320;2024-03-25T05:49:21;3.27;87.27
58102;HTU21D;52034;51.926;6.320;2024-03-25T05:50:21;3.27;87.53
58102;HTU21D;52034;51.926;6.320;2024-03-25T05:51:22;3.30;87.29
58102;HTU21D;52034;51.926;6.320;2024-03-25T05:52:23;3.28;88.49
58102;HTU21D;52034;51.926;6.320;2024-03-25T05:53:23;3.33;88.27
58102;HTU21D;52034;51.926;6.320;2024-03-25T05:54:24;3.39;88.15
58102;HTU21D;52034;51.926;6.320;2024-03-25T05:55:25;3.40;88.72
58102;HTU21D;52034;51.926;6.320;2024-03-25T05:56:26;3.43;88.88
58102;HTU21D;52034;51.926;6.320;2024-03-25T05:57:30;3.54;88.31
58102;HTU21D;52034;51.926;6.320;2024-03-25T05:58:31;3.52;88.34
58102;HTU21D;52034;51.926;6.320;2024-03-25T05:59:32;3.44;88.61
58102;HTU21D;52034;51.926;6.320;2024-03-25T06:00:32;3.52;88.30
58102;HTU21D;52034;51.926;6.320;2024-03-25T06:01:33;3.47;88.24
58102;HTU21D;52034;51.926;6.320;2024-03-25T06:02:34;3.48;88.27
58102;HTU21D;52034;51.926;6.320;2024-03-25T06:03:35;3.65;88.03
58102;HTU21D;52034;51.926;6.320;2024-03-25T06:04:35;3.60;87.56
58102;HTU21D;52034;51.926;6.320;2024-03-25T06:05:36;3.60;88.00
58102;HTU21D;52034;51.926;6.320;2024-03-25T06:06:37;3.58;88.07
58102;HTU21D;52034;51.926;6.320;2024-03-25T06:07:37;3.65;88.36
58102;HTU21D;52034;51.926;6.320;2024-03-25T06:08:38;3.62;88.14
58102;HTU21D;52034;51.926;6.320;2024-03-25T06:09:40;3.67;87.74
58102;HTU21D;52034;51.926;6.320;2024-03-25T06:10:40;3.61;88.12
58102;HTU21D;52034;51.926;6.320;2024-03-25T06:11:41;3.64;87.96
58102;HTU21D;52034;51.926;6.320;2024-03-25T06:12:42;3.71;87.73
58102;HTU21D;52034;51.926;6.320;2024-03-25T06:13:46;3.79;87.58
58102;HTU21D;52034;51.926;6.320;2024-03-25T06:14:47;3.82;87.63
58102;HTU21D;52034;51.926;6.320;2024-03-25T06:15:48;3.80;88.45
58102;HTU21D;52034;51.926;6.320;2024-03-25T06:16:49;3.92;87.89
58102;HTU21D;52034;51.926;6.320;2024-03-25T06:17:49;4.05;87.43
58102;HTU21D;52034;51.926;6.320;2024-03-25T06:18:50;4.04;88.15
58102;HTU21D;52034;51.926;6.320;2024-03-25T06:19:52;4.10;87.56
58102;HTU21D;52034;51.926;6.320;2024-03-25T06:20:52;4.10;87.67
58102;HTU21D;52034;51.926;6.320;2024-03-25T06:21:53;4.19;87.19
58102;HTU21D;52034;51.926;6.320;2024-03-25T06:22:54;4.31;86.82
58102;HTU21D;52034;51.926;6.320;2024-03-25T06:23:54;4.43;86.32
58102;HTU21D;52034;51.926;6.320;2024-03-25T06:24:55;4.42;86.56